Bei Facebook empfehlenBei Twitter postenGoogle plusPinterest

Das Wetter im Erzgebirge am 23.05.2017

Wetter und Klima am 23.05.2017 Holzhau im Erzgebirge (630m ü.NN)
Letzte gemessene Temperatur und Uhrzeit der Messung23:45:00 Uhr12.40 °C
Temperatur (Maximum / Höchstwert) und Uhrzeit der Messung17:00:00 Uhr23.50 °C
Temperatur (Minimum / Tiefstwert) und Uhrzeit der Messung05:30:004.40 °C
Errechneter Absolutwert der Temperaturschwankungen zwischen Tmin und Tmax des Tages19.10 K
Errechnete Tagesmitteltemperatur14.74583 °C
Gesamt - Niederschlag des Tages (in flüssiger Form)8.81 Liter / m²
Luftdruck (Maximum / Höchstwert) und Zeitpunkt der Messung16:30:00 Uhr1015.10 hPa
Luftdruck (Minimum / Tiefstwert) und Zeitpunkt der Messung23:45:00 Uhr1013.30 hPa
Errechneter Absolutwert der Luftdruckschwankungen des Tages1.80 hPa
Höchste gemessene Windgeschwindigkeit und Uhrzeit der Messung13:45:00 Uhr38.88 km/h
Errechnete Windhäufigkeit in Relation zu den Messwerten des Tages26.04167 %
Niedrigste Windkühle (Windchill) und Zeitpunkt der Messung05:30:00 Uhr2.00 °C
Taupunkt (Maximum / Höchstwert) und Uhrzeit der Messung08:15:00 Uhr10.90 °C
Taupunkt (Minimum / Tiefstwert) und Uhrzeit der Messung05:30:002.80 °C
Anzahl der automatisch eingelesenen Messwerte 96

Detaillierte Wetter- und Klima- Messwerte für den 23.05.2017 in Holzhau im Erzgebirge (630m ü.NN)
ZeitTemperaturLuftdruckRel. LuftfeuchteWindWindrichtungWindchillTaupunktNiederschlag l/m²
23:45:0012.40 °C1013.30 hPa89.00 %10.60 °C8.81
23:30:0012.40 °C1013.30 hPa88.00 %10.50 °C8.81
23:15:0012.40 °C1013.90 hPa88.00 %10.50 °C8.29
23:00:0011.90 °C1013.90 hPa85.00 %9.50 °C1.56
22:45:0012.40 °C1013.40 hPa79.00 %8.90 °C0.52
22:30:0013.30 °C1013.50 hPa73.00 %8.60 °C 
22:15:0013.40 °C1013.60 hPa73.00 %8.70 °C 
22:00:0013.40 °C1013.70 hPa72.00 %8.50 °C 
21:45:0013.60 °C1014.00 hPa70.00 %8.20 °C 
21:30:0014.20 °C1014.00 hPa68.00 %8.40 °C 
21:15:0014.80 °C1014.00 hPa66.00 %8.50 °C 
21:00:0015.30 °C1014.20 hPa65.00 %8.80 °C 
20:45:0015.90 °C1014.20 hPa63.00 %8.90 °C 
20:30:0016.70 °C1014.00 hPa62.00 %9.40 °C 
20:15:0017.40 °C1014.10 hPa58.00 %9.10 °C 
20:00:0018.10 °C1013.90 hPa57.00 %9.50 °C 
19:45:0018.40 °C1013.90 hPa57.00 %9.70 °C 
19:30:0018.40 °C1014.10 hPa55.00 %9.20 °C 
19:15:0018.90 °C1014.00 hPa53.00 %9.10 °C 
19:00:0019.30 °C1014.10 hPa52.00 %9.20 °C 
18:45:0019.50 °C1014.10 hPa51.00 %9.10 °C 
18:30:0019.80 °C1014.10 hPa49.00 %8.80 °C 
18:15:0020.50 °C1014.20 hPa48.00 %16.92 km/hWNW20.50 °C9.10 °C 
18:00:0020.90 °C1014.10 hPa46.00 %6.48 km/hW20.90 °C8.90 °C 
17:45:0021.20 °C1014.40 hPa45.00 %3.96 km/hW21.20 °C8.80 °C 
17:30:0021.80 °C1014.40 hPa44.00 %15.48 km/hWNW21.80 °C9.00 °C 
17:15:0022.70 °C1014.50 hPa42.00 %10.44 km/hWSW22.70 °C9.10 °C 
17:00:0023.50 °C1014.80 hPa42.00 %9.90 °C 
16:45:0022.80 °C1014.80 hPa43.00 %9.60 °C 
16:30:0021.90 °C1015.10 hPa42.00 %8.40 °C 
16:15:0021.60 °C1015.10 hPa41.00 %7.80 °C 
16:00:0022.30 °C1015.00 hPa40.00 %32.40 km/hWNW23.40 °C8.10 °C 
15:45:0022.30 °C1015.00 hPa40.00 %8.10 °C 
15:30:0022.60 °C1014.80 hPa41.00 %34.92 km/hW23.70 °C8.70 °C 
15:15:0023.10 °C1014.50 hPa41.00 %9.10 °C 
15:00:0023.20 °C1014.40 hPa40.00 %8.90 °C 
14:45:0022.40 °C1014.40 hPa45.00 %9.90 °C 
14:30:0021.80 °C1014.40 hPa43.00 %21.96 km/hWSW23.00 °C8.70 °C 
14:15:0021.90 °C1014.40 hPa45.00 %9.00 km/hW21.90 °C9.40 °C 
14:00:0021.90 °C1014.50 hPa47.00 %23.40 km/hNW23.10 °C10.10 °C 
13:45:0021.70 °C1014.40 hPa48.00 %38.88 km/hSW22.60 °C10.20 °C 
13:30:0021.10 °C1014.20 hPa50.00 %19.44 km/hNW22.30 °C10.30 °C 
13:15:0021.50 °C1014.10 hPa47.00 %15.48 km/hWSW21.50 °C9.70 °C 
13:00:0021.80 °C1013.90 hPa47.00 %10.00 °C 
12:45:0021.70 °C1013.60 hPa47.00 %9.90 °C 
12:30:0021.80 °C1013.80 hPa47.00 %5.04 km/hW21.80 °C10.00 °C 
12:15:0022.10 °C1013.80 hPa46.00 %9.90 °C 
12:00:0021.60 °C1013.90 hPa48.00 %10.10 °C 
11:45:0021.10 °C1013.70 hPa50.00 %10.30 °C 
11:30:0020.40 °C1013.80 hPa51.00 %10.44 km/hW20.40 °C9.90 °C 
11:15:0019.60 °C1013.90 hPa51.00 %9.20 °C 
11:00:0020.20 °C1013.70 hPa50.00 %18.00 km/hWNW21.30 °C9.50 °C 
10:45:0020.40 °C1013.80 hPa50.00 %9.60 °C 
10:30:0020.80 °C1013.70 hPa49.00 %18.00 km/hWNW22.00 °C9.70 °C 
10:15:0021.50 °C1013.80 hPa49.00 %10.30 °C 
10:00:0020.10 °C1013.80 hPa53.00 %10.20 °C 
09:45:0018.90 °C1013.90 hPa54.00 %19.44 km/hNW19.80 °C9.40 °C 
09:30:0018.40 °C1014.00 hPa56.00 %9.50 °C 
09:15:0018.20 °C1014.10 hPa57.00 %9.50 °C 
09:00:0018.00 °C1014.00 hPa57.00 %11.52 km/hSSW18.00 °C9.40 °C 
08:45:0017.60 °C1014.00 hPa61.00 %10.00 °C 
08:30:0017.30 °C1013.90 hPa62.00 %10.00 °C 
08:15:0016.80 °C1014.00 hPa68.00 %10.90 °C 
08:00:0015.50 °C1013.80 hPa70.00 %10.10 °C 
07:45:0014.50 °C1013.60 hPa72.00 %9.50 °C 
07:30:0012.60 °C1013.70 hPa77.00 %8.70 °C 
07:15:0010.30 °C1013.70 hPa83.00 %7.50 °C 
07:00:007.30 °C1013.60 hPa89.00 %5.60 °C 
06:45:006.30 °C1013.60 hPa89.00 %5.04 km/hOSO6.30 °C4.60 °C 
06:30:005.80 °C1013.50 hPa90.00 %4.30 °C 
06:15:004.90 °C1013.50 hPa90.00 %5.04 km/hSO4.90 °C3.40 °C 
06:00:004.60 °C1013.60 hPa90.00 %3.10 °C 
05:45:004.60 °C1013.60 hPa90.00 %3.10 °C 
05:30:004.40 °C1013.50 hPa89.00 %34.92 km/hSO2.00 °C2.80 °C 
05:15:004.70 °C1013.50 hPa89.00 %3.00 °C 
05:00:004.90 °C1013.40 hPa90.00 %18.00 km/hOSO4.00 °C3.40 °C 
04:45:004.60 °C1013.40 hPa89.00 %2.90 °C 
04:30:004.70 °C1013.40 hPa89.00 %3.00 °C 
04:15:004.80 °C1013.30 hPa88.00 %3.00 °C 
04:00:004.80 °C1013.40 hPa89.00 %3.10 °C 
03:45:004.80 °C1013.50 hPa88.00 %3.00 °C 
03:30:005.00 °C1013.80 hPa88.00 %3.20 °C 
03:15:005.30 °C1013.90 hPa88.00 %3.50 °C 
03:00:005.20 °C1013.90 hPa88.00 %3.40 °C 
02:45:005.20 °C1014.00 hPa87.00 %6.48 km/hOSO5.20 °C3.20 °C 
02:30:005.30 °C1014.10 hPa86.00 %3.20 °C 
02:15:005.50 °C1014.20 hPa86.00 %3.30 °C 
02:00:005.60 °C1014.10 hPa86.00 %3.40 °C 
01:45:005.60 °C1014.10 hPa85.00 %3.30 °C 
01:30:005.90 °C1014.20 hPa85.00 %3.60 °C 
01:15:006.20 °C1014.20 hPa84.00 %3.70 °C 
01:00:006.50 °C1014.50 hPa85.00 %4.20 °C 
00:45:006.60 °C1014.50 hPa85.00 %28.44 km/hOSO5.00 °C4.30 °C 
00:30:006.70 °C1014.50 hPa83.00 %4.00 °C 
00:15:006.90 °C1014.50 hPa82.00 %4.00 °C 
00:00:007.10 °C1014.60 hPa82.00 %4.20 °C 

Permanenter Link zu dieser Seite: Wetter im Erzgebirge am 23.05.2017
Performance-Info: Die Erstellung der Seite / Statistik(en) / Tabelle(n) erforderte 5 Datenbankserver-Abfrage(n) und dauerte 97 Millisekunden. (Dieser Messwert ist von der Gesamt-Auslastung des Servers abhängig.)
Erzgebirge - Wetter | Erzgebirge - Wetter (Mobilgeräte) | Komplette Klimadatenbank